Cotulla-La Salle County Information

FAA: COT - ICAO: KCOT

Cotulla-La Salle County (Airport) Location

State Texas
County La Salle
City Cotulla
Cotulla-La Salle County (Airport) is 1 mile northeast of Cotulla, TX.
Latitude 28-27-20.6000N
Longitude 099-13-02.0000W
Elevation 474ft

Cotulla-La Salle County METARs

METAR KCOT 190053Z AUTO 12005KT 10SM CLR 21/08 A2987 RMK AO2 SLP111 T02110078
Altimeter 29.87"
Temperature 21.1°C (70.0°F)
Wind 120° at 5KT
Clouds Skies are clear.
Visibility 10.0mi
Time observed: 2022-01-19T00:53:00Z

Cotulla-La Salle County (Airport) Details

Status Operational
Activation December 1948
Ownership Public
Usage Public
Chart SAN ANTONIO
ATC on-site No
Beacon schedule sunset-sunrise
Beacon color clear green

Cotulla-La Salle County (Airport) Contacts

Owner CITY OF COTULLA/LA SALLE CO
Owner address 202 S. MAIN ST., COTULLA, TX 78014
Owner phone 830-879-2367
Manager JOHN SINGLE, ADMIN.
Manager address PO BOX 1538, CONROE, TX 77305
Manager phone 409-539-7080

Cotulla-La Salle County Radio Frequencies

Cotulla-La Salle County (Airport) Radio Frequencies

UNICOM 122.7
Common traffic advisory frequency (CTAF) 122.7